sensor_id;sensor_type;location;lat;lon;timestamp;temperature;humidity
10057;DHT22;5068;51.286;7.518;2024-02-21T00:01:14;7.90;62.80
10057;DHT22;5068;51.286;7.518;2024-02-21T00:02:48;7.80;62.90
10057;DHT22;5068;51.286;7.518;2024-02-21T00:04:21;7.80;63.00
10057;DHT22;5068;51.286;7.518;2024-02-21T00:05:55;7.80;63.10
10057;DHT22;5068;51.286;7.518;2024-02-21T00:07:28;7.80;63.00
10057;DHT22;5068;51.286;7.518;2024-02-21T00:09:00;7.80;62.90
10057;DHT22;5068;51.286;7.518;2024-02-21T00:10:34;7.80;62.80
10057;DHT22;5068;51.286;7.518;2024-02-21T00:12:07;7.80;62.80
10057;DHT22;5068;51.286;7.518;2024-02-21T00:13:41;7.90;63.00
10057;DHT22;5068;51.286;7.518;2024-02-21T00:15:14;7.90;62.90
10057;DHT22;5068;51.286;7.518;2024-02-21T00:16:47;7.90;62.80
10057;DHT22;5068;51.286;7.518;2024-02-21T00:18:20;7.90;62.90
10057;DHT22;5068;51.286;7.518;2024-02-21T00:19:55;7.90;62.90
10057;DHT22;5068;51.286;7.518;2024-02-21T00:21:29;7.90;62.80
10057;DHT22;5068;51.286;7.518;2024-02-21T00:23:03;7.90;62.80
10057;DHT22;5068;51.286;7.518;2024-02-21T00:24:37;7.90;62.70
10057;DHT22;5068;51.286;7.518;2024-02-21T00:26:11;7.90;62.70
10057;DHT22;5068;51.286;7.518;2024-02-21T00:27:43;7.90;62.70
10057;DHT22;5068;51.286;7.518;2024-02-21T00:29:16;7.90;62.70
10057;DHT22;5068;51.286;7.518;2024-02-21T00:30:49;7.90;62.70
10057;DHT22;5068;51.286;7.518;2024-02-21T00:32:25;7.90;62.60
10057;DHT22;5068;51.286;7.518;2024-02-21T00:33:57;8.00;62.80
10057;DHT22;5068;51.286;7.518;2024-02-21T00:35:30;7.90;62.70
10057;DHT22;5068;51.286;7.518;2024-02-21T00:37:04;7.90;62.70
10057;DHT22;5068;51.286;7.518;2024-02-21T00:38:37;7.90;63.60
10057;DHT22;5068;51.286;7.518;2024-02-21T00:40:10;7.90;62.70
10057;DHT22;5068;51.286;7.518;2024-02-21T00:41:44;7.90;62.80
10057;DHT22;5068;51.286;7.518;2024-02-21T00:43:16;7.90;62.80
10057;DHT22;5068;51.286;7.518;2024-02-21T00:44:49;7.90;62.70
10057;DHT22;5068;51.286;7.518;2024-02-21T00:46:22;7.90;62.80
10057;DHT22;5068;51.286;7.518;2024-02-21T00:47:55;7.90;62.70
10057;DHT22;5068;51.286;7.518;2024-02-21T00:49:28;7.90;62.60
10057;DHT22;5068;51.286;7.518;2024-02-21T00:51:00;7.90;62.70
10057;DHT22;5068;51.286;7.518;2024-02-21T00:52:35;7.90;62.70
10057;DHT22;5068;51.286;7.518;2024-02-21T00:54:07;7.90;62.80
10057;DHT22;5068;51.286;7.518;2024-02-21T00:55:40;7.90;62.80
10057;DHT22;5068;51.286;7.518;2024-02-21T00:57:13;7.90;62.80
10057;DHT22;5068;51.286;7.518;2024-02-21T00:58:46;7.90;62.80
10057;DHT22;5068;51.286;7.518;2024-02-21T01:00:19;7.90;62.80
10057;DHT22;5068;51.286;7.518;2024-02-21T01:01:53;7.90;62.90
10057;DHT22;5068;51.286;7.518;2024-02-21T01:03:25;7.90;62.90
10057;DHT22;5068;51.286;7.518;2024-02-21T01:04:58;7.90;62.90
10057;DHT22;5068;51.286;7.518;2024-02-21T01:06:30;7.90;62.80
10057;DHT22;5068;51.286;7.518;2024-02-21T01:08:05;7.90;62.80
10057;DHT22;5068;51.286;7.518;2024-02-21T01:09:38;7.90;62.90
10057;DHT22;5068;51.286;7.518;2024-02-21T01:11:11;7.90;62.90
10057;DHT22;5068;51.286;7.518;2024-02-21T01:12:43;7.90;62.90
10057;DHT22;5068;51.286;7.518;2024-02-21T01:14:17;7.90;62.90
10057;DHT22;5068;51.286;7.518;2024-02-21T01:15:49;7.90;62.90
10057;DHT22;5068;51.286;7.518;2024-02-21T01:17:22;7.90;62.90
10057;DHT22;5068;51.286;7.518;2024-02-21T01:18:55;7.90;62.80
10057;DHT22;5068;51.286;7.518;2024-02-21T01:20:28;7.90;62.70
10057;DHT22;5068;51.286;7.518;2024-02-21T01:22:00;7.90;62.80
10057;DHT22;5068;51.286;7.518;2024-02-21T01:23:36;7.90;62.90
10057;DHT22;5068;51.286;7.518;2024-02-21T01:25:10;7.90;62.90
10057;DHT22;5068;51.286;7.518;2024-02-21T01:26:42;7.80;62.90
10057;DHT22;5068;51.286;7.518;2024-02-21T01:28:15;7.80;62.90
10057;DHT22;5068;51.286;7.518;2024-02-21T01:29:48;7.80;63.00
10057;DHT22;5068;51.286;7.518;2024-02-21T01:31:21;7.80;63.00
10057;DHT22;5068;51.286;7.518;2024-02-21T01:32:53;7.80;63.00
10057;DHT22;5068;51.286;7.518;2024-02-21T01:34:27;7.80;63.20
10057;DHT22;5068;51.286;7.518;2024-02-21T01:36:04;7.80;63.20
10057;DHT22;5068;51.286;7.518;2024-02-21T01:37:39;7.80;63.20
10057;DHT22;5068;51.286;7.518;2024-02-21T01:39:12;7.80;63.00
10057;DHT22;5068;51.286;7.518;2024-02-21T01:40:46;7.80;63.10
10057;DHT22;5068;51.286;7.518;2024-02-21T01:42:18;7.80;63.10
10057;DHT22;5068;51.286;7.518;2024-02-21T01:43:51;7.80;63.00
10057;DHT22;5068;51.286;7.518;2024-02-21T01:45:25;7.80;63.00
10057;DHT22;5068;51.286;7.518;2024-02-21T01:46:57;7.90;63.10
10057;DHT22;5068;51.286;7.518;2024-02-21T01:48:31;7.90;63.10
10057;DHT22;5068;51.286;7.518;2024-02-21T01:50:04;7.80;63.00
10057;DHT22;5068;51.286;7.518;2024-02-21T01:51:38;7.80;62.90
10057;DHT22;5068;51.286;7.518;2024-02-21T01:53:12;7.80;62.80
10057;DHT22;5068;51.286;7.518;2024-02-21T01:54:51;7.90;62.90
10057;DHT22;5068;51.286;7.518;2024-02-21T01:56:25;7.90;63.00
10057;DHT22;5068;51.286;7.518;2024-02-21T01:57:57;7.90;63.10
10057;DHT22;5068;51.286;7.518;2024-02-21T01:59:30;7.80;62.90
10057;DHT22;5068;51.286;7.518;2024-02-21T02:01:04;7.90;63.00
10057;DHT22;5068;51.286;7.518;2024-02-21T02:02:38;7.90;63.00
10057;DHT22;5068;51.286;7.518;2024-02-21T02:04:12;7.90;63.20
10057;DHT22;5068;51.286;7.518;2024-02-21T02:05:46;7.90;63.10
10057;DHT22;5068;51.286;7.518;2024-02-21T02:07:20;7.90;63.20
10057;DHT22;5068;51.286;7.518;2024-02-21T02:08:53;7.90;63.00
10057;DHT22;5068;51.286;7.518;2024-02-21T02:10:28;7.90;63.10
10057;DHT22;5068;51.286;7.518;2024-02-21T02:12:02;7.90;62.90
10057;DHT22;5068;51.286;7.518;2024-02-21T02:13:35;7.90;62.90
10057;DHT22;5068;51.286;7.518;2024-02-21T02:15:08;7.90;62.80
10057;DHT22;5068;51.286;7.518;2024-02-21T02:16:41;7.90;62.90
10057;DHT22;5068;51.286;7.518;2024-02-21T02:18:17;7.90;62.80
10057;DHT22;5068;51.286;7.518;2024-02-21T02:19:50;7.90;62.90
10057;DHT22;5068;51.286;7.518;2024-02-21T02:21:28;7.90;62.80
10057;DHT22;5068;51.286;7.518;2024-02-21T02:23:06;7.90;62.90
10057;DHT22;5068;51.286;7.518;2024-02-21T02:24:42;7.90;62.90
10057;DHT22;5068;51.286;7.518;2024-02-21T02:26:15;7.90;62.90
10057;DHT22;5068;51.286;7.518;2024-02-21T02:27:49;7.90;62.80
10057;DHT22;5068;51.286;7.518;2024-02-21T02:29:21;7.90;62.80
10057;DHT22;5068;51.286;7.518;2024-02-21T02:30:54;7.90;62.80
10057;DHT22;5068;51.286;7.518;2024-02-21T02:32:27;7.90;62.90
10057;DHT22;5068;51.286;7.518;2024-02-21T02:34:00;8.00;63.00
10057;DHT22;5068;51.286;7.518;2024-02-21T02:35:33;7.90;62.80
10057;DHT22;5068;51.286;7.518;2024-02-21T02:37:08;7.90;62.70
10057;DHT22;5068;51.286;7.518;2024-02-21T02:38:40;8.00;62.80
10057;DHT22;5068;51.286;7.518;2024-02-21T02:40:15;8.00;62.80
10057;DHT22;5068;51.286;7.518;2024-02-21T02:41:49;8.00;62.80
10057;DHT22;5068;51.286;7.518;2024-02-21T02:43:21;8.00;62.80
10057;DHT22;5068;51.286;7.518;2024-02-21T02:44:55;8.00;62.80
10057;DHT22;5068;51.286;7.518;2024-02-21T02:46:29;8.00;62.90
10057;DHT22;5068;51.286;7.518;2024-02-21T02:48:02;8.00;62.90
10057;DHT22;5068;51.286;7.518;2024-02-21T02:49:35;8.00;63.10
10057;DHT22;5068;51.286;7.518;2024-02-21T02:51:08;8.00;63.00
10057;DHT22;5068;51.286;7.518;2024-02-21T02:52:41;8.00;63.00
10057;DHT22;5068;51.286;7.518;2024-02-21T02:54:14;8.00;63.00
10057;DHT22;5068;51.286;7.518;2024-02-21T02:55:48;8.00;62.90
10057;DHT22;5068;51.286;7.518;2024-02-21T02:57:21;8.00;62.80
10057;DHT22;5068;51.286;7.518;2024-02-21T02:58:53;8.00;62.80
10057;DHT22;5068;51.286;7.518;2024-02-21T03:00:27;8.00;62.90
10057;DHT22;5068;51.286;7.518;2024-02-21T03:01:59;7.90;62.80
10057;DHT22;5068;51.286;7.518;2024-02-21T03:03:32;8.00;62.80
10057;DHT22;5068;51.286;7.518;2024-02-21T03:05:12;7.90;62.70
10057;DHT22;5068;51.286;7.518;2024-02-21T03:06:47;7.90;62.70
10057;DHT22;5068;51.286;7.518;2024-02-21T03:08:20;7.90;62.60
10057;DHT22;5068;51.286;7.518;2024-02-21T03:09:54;7.90;62.60
10057;DHT22;5068;51.286;7.518;2024-02-21T03:11:28;7.90;62.50
10057;DHT22;5068;51.286;7.518;2024-02-21T03:13:02;7.90;62.60
10057;DHT22;5068;51.286;7.518;2024-02-21T03:14:36;7.90;62.70
10057;DHT22;5068;51.286;7.518;2024-02-21T03:16:08;7.90;62.60
10057;DHT22;5068;51.286;7.518;2024-02-21T03:17:42;7.90;62.70
10057;DHT22;5068;51.286;7.518;2024-02-21T03:19:14;7.90;62.60
10057;DHT22;5068;51.286;7.518;2024-02-21T03:20:48;7.90;62.60
10057;DHT22;5068;51.286;7.518;2024-02-21T03:22:20;7.90;62.60
10057;DHT22;5068;51.286;7.518;2024-02-21T03:23:53;7.90;62.60
10057;DHT22;5068;51.286;7.518;2024-02-21T03:25:26;7.90;62.60
10057;DHT22;5068;51.286;7.518;2024-02-21T03:27:00;7.90;62.60
10057;DHT22;5068;51.286;7.518;2024-02-21T03:28:33;7.90;62.70
10057;DHT22;5068;51.286;7.518;2024-02-21T03:30:07;7.90;62.70
10057;DHT22;5068;51.286;7.518;2024-02-21T03:31:40;7.90;62.70
10057;DHT22;5068;51.286;7.518;2024-02-21T03:33:14;7.90;62.60
10057;DHT22;5068;51.286;7.518;2024-02-21T03:34:47;7.90;62.50
10057;DHT22;5068;51.286;7.518;2024-02-21T03:36:20;7.90;62.50
10057;DHT22;5068;51.286;7.518;2024-02-21T03:37:53;7.90;62.50
10057;DHT22;5068;51.286;7.518;2024-02-21T03:39:26;7.90;62.60
10057;DHT22;5068;51.286;7.518;2024-02-21T03:40:59;7.90;62.60
10057;DHT22;5068;51.286;7.518;2024-02-21T03:42:33;7.80;62.60
10057;DHT22;5068;51.286;7.518;2024-02-21T03:44:06;7.90;62.70
10057;DHT22;5068;51.286;7.518;2024-02-21T03:45:38;7.90;62.70
10057;DHT22;5068;51.286;7.518;2024-02-21T03:47:11;7.80;62.70
10057;DHT22;5068;51.286;7.518;2024-02-21T03:48:44;7.80;62.80
10057;DHT22;5068;51.286;7.518;2024-02-21T03:50:18;7.80;62.70
10057;DHT22;5068;51.286;7.518;2024-02-21T03:51:50;7.80;62.80
10057;DHT22;5068;51.286;7.518;2024-02-21T03:53:24;7.80;63.60
10057;DHT22;5068;51.286;7.518;2024-02-21T03:54:56;7.90;62.90
10057;DHT22;5068;51.286;7.518;2024-02-21T03:56:29;7.90;62.90
10057;DHT22;5068;51.286;7.518;2024-02-21T03:58:03;7.80;62.80
10057;DHT22;5068;51.286;7.518;2024-02-21T03:59:37;7.90;62.90
10057;DHT22;5068;51.286;7.518;2024-02-21T04:01:16;7.90;62.80
10057;DHT22;5068;51.286;7.518;2024-02-21T04:02:49;7.80;62.80
10057;DHT22;5068;51.286;7.518;2024-02-21T04:04:21;7.90;62.80
10057;DHT22;5068;51.286;7.518;2024-02-21T04:05:55;7.80;62.70
10057;DHT22;5068;51.286;7.518;2024-02-21T04:07:27;7.90;62.70
10057;DHT22;5068;51.286;7.518;2024-02-21T04:09:01;7.90;62.80
10057;DHT22;5068;51.286;7.518;2024-02-21T04:10:33;7.90;62.70
10057;DHT22;5068;51.286;7.518;2024-02-21T04:12:08;7.90;62.70
10057;DHT22;5068;51.286;7.518;2024-02-21T04:13:42;7.80;62.60
10057;DHT22;5068;51.286;7.518;2024-02-21T04:15:16;7.80;62.70
10057;DHT22;5068;51.286;7.518;2024-02-21T04:16:49;7.80;62.70
10057;DHT22;5068;51.286;7.518;2024-02-21T04:18:22;7.90;62.80
10057;DHT22;5068;51.286;7.518;2024-02-21T04:20:01;7.90;62.80
10057;DHT22;5068;51.286;7.518;2024-02-21T04:21:37;7.90;63.00
10057;DHT22;5068;51.286;7.518;2024-02-21T04:23:10;7.80;62.80
10057;DHT22;5068;51.286;7.518;2024-02-21T04:24:44;7.80;62.70
10057;DHT22;5068;51.286;7.518;2024-02-21T04:26:17;7.90;62.80
10057;DHT22;5068;51.286;7.518;2024-02-21T04:27:49;7.80;62.80
10057;DHT22;5068;51.286;7.518;2024-02-21T04:29:24;7.80;62.70
10057;DHT22;5068;51.286;7.518;2024-02-21T04:30:59;7.80;62.70
10057;DHT22;5068;51.286;7.518;2024-02-21T04:32:31;7.90;62.80
10057;DHT22;5068;51.286;7.518;2024-02-21T04:34:06;7.80;62.80
10057;DHT22;5068;51.286;7.518;2024-02-21T04:35:39;7.80;62.60
10057;DHT22;5068;51.286;7.518;2024-02-21T04:37:12;7.90;62.70
10057;DHT22;5068;51.286;7.518;2024-02-21T04:38:45;7.90;62.70
10057;DHT22;5068;51.286;7.518;2024-02-21T04:40:18;7.90;62.70
10057;DHT22;5068;51.286;7.518;2024-02-21T04:41:51;7.90;62.80
10057;DHT22;5068;51.286;7.518;2024-02-21T04:43:23;7.90;62.70
10057;DHT22;5068;51.286;7.518;2024-02-21T04:44:58;7.90;62.80
10057;DHT22;5068;51.286;7.518;2024-02-21T04:46:31;7.90;62.80
10057;DHT22;5068;51.286;7.518;2024-02-21T04:48:04;7.90;62.80
10057;DHT22;5068;51.286;7.518;2024-02-21T04:49:38;7.90;62.80
10057;DHT22;5068;51.286;7.518;2024-02-21T04:51:12;7.90;62.80
10057;DHT22;5068;51.286;7.518;2024-02-21T04:52:45;7.90;62.40
10057;DHT22;5068;51.286;7.518;2024-02-21T04:54:17;7.90;62.60
10057;DHT22;5068;51.286;7.518;2024-02-21T04:55:51;7.90;62.60
10057;DHT22;5068;51.286;7.518;2024-02-21T04:57:23;7.90;62.70
10057;DHT22;5068;51.286;7.518;2024-02-21T04:58:57;7.90;62.70
10057;DHT22;5068;51.286;7.518;2024-02-21T05:00:31;7.90;62.70
10057;DHT22;5068;51.286;7.518;2024-02-21T05:02:04;7.90;63.50
10057;DHT22;5068;51.286;7.518;2024-02-21T05:03:36;7.90;62.60
10057;DHT22;5068;51.286;7.518;2024-02-21T05:05:11;7.90;62.70
10057;DHT22;5068;51.286;7.518;2024-02-21T05:06:44;7.90;62.60
10057;DHT22;5068;51.286;7.518;2024-02-21T05:08:17;7.90;62.50
10057;DHT22;5068;51.286;7.518;2024-02-21T05:09:50;7.90;62.50
10057;DHT22;5068;51.286;7.518;2024-02-21T05:11:24;7.90;62.50
10057;DHT22;5068;51.286;7.518;2024-02-21T05:12:57;7.90;62.40
10057;DHT22;5068;51.286;7.518;2024-02-21T05:14:30;7.90;62.40
10057;DHT22;5068;51.286;7.518;2024-02-21T05:16:05;7.90;62.30
10057;DHT22;5068;51.286;7.518;2024-02-21T05:17:38;7.80;62.30
10057;DHT22;5068;51.286;7.518;2024-02-21T05:19:11;7.90;62.30
10057;DHT22;5068;51.286;7.518;2024-02-21T05:20:45;7.80;62.30
10057;DHT22;5068;51.286;7.518;2024-02-21T05:22:17;7.90;62.40
10057;DHT22;5068;51.286;7.518;2024-02-21T05:23:50;7.80;62.30
10057;DHT22;5068;51.286;7.518;2024-02-21T05:25:23;7.80;62.50
10057;DHT22;5068;51.286;7.518;2024-02-21T05:26:57;7.80;62.50
10057;DHT22;5068;51.286;7.518;2024-02-21T05:28:29;7.80;62.60
10057;DHT22;5068;51.286;7.518;2024-02-21T05:30:03;7.70;62.50
10057;DHT22;5068;51.286;7.518;2024-02-21T05:31:56;7.80;62.70
10057;DHT22;5068;51.286;7.518;2024-02-21T05:33:30;7.70;62.60
10057;DHT22;5068;51.286;7.518;2024-02-21T05:35:06;7.70;62.60
10057;DHT22;5068;51.286;7.518;2024-02-21T05:36:41;7.80;62.80
10057;DHT22;5068;51.286;7.518;2024-02-21T05:38:16;7.70;62.80
10057;DHT22;5068;51.286;7.518;2024-02-21T05:39:50;7.70;63.00
10057;DHT22;5068;51.286;7.518;2024-02-21T05:41:23;7.80;62.90
10057;DHT22;5068;51.286;7.518;2024-02-21T05:42:56;7.80;62.80
10057;DHT22;5068;51.286;7.518;2024-02-21T05:44:29;7.80;62.60
10057;DHT22;5068;51.286;7.518;2024-02-21T05:46:02;7.70;62.60
10057;DHT22;5068;51.286;7.518;2024-02-21T05:47:36;7.80;62.70
10057;DHT22;5068;51.286;7.518;2024-02-21T05:49:10;7.70;62.70
10057;DHT22;5068;51.286;7.518;2024-02-21T05:50:42;7.70;62.70
10057;DHT22;5068;51.286;7.518;2024-02-21T05:52:15;7.70;62.70
10057;DHT22;5068;51.286;7.518;2024-02-21T05:53:48;7.80;62.80
10057;DHT22;5068;51.286;7.518;2024-02-21T05:55:21;7.70;62.70
10057;DHT22;5068;51.286;7.518;2024-02-21T05:56:55;7.80;62.70
10057;DHT22;5068;51.286;7.518;2024-02-21T05:58:28;7.80;62.70
10057;DHT22;5068;51.286;7.518;2024-02-21T06:00:05;7.70;62.60
10057;DHT22;5068;51.286;7.518;2024-02-21T06:01:43;7.70;62.70
10057;DHT22;5068;51.286;7.518;2024-02-21T06:03:18;7.70;62.60
10057;DHT22;5068;51.286;7.518;2024-02-21T06:04:50;7.80;62.60
10057;DHT22;5068;51.286;7.518;2024-02-21T06:06:23;7.70;62.50
10057;DHT22;5068;51.286;7.518;2024-02-21T06:07:56;7.70;62.50
10057;DHT22;5068;51.286;7.518;2024-02-21T06:09:30;7.70;62.50
10057;DHT22;5068;51.286;7.518;2024-02-21T06:11:03;7.70;62.70
10057;DHT22;5068;51.286;7.518;2024-02-21T06:12:37;7.70;62.70
10057;DHT22;5068;51.286;7.518;2024-02-21T06:14:09;7.70;62.70
10057;DHT22;5068;51.286;7.518;2024-02-21T06:15:42;7.60;63.40
10057;DHT22;5068;51.286;7.518;2024-02-21T06:17:16;7.60;62.60
10057;DHT22;5068;51.286;7.518;2024-02-21T06:18:50;7.60;62.70
10057;DHT22;5068;51.286;7.518;2024-02-21T06:20:22;7.60;62.70
10057;DHT22;5068;51.286;7.518;2024-02-21T06:21:56;7.60;62.60
10057;DHT22;5068;51.286;7.518;2024-02-21T06:23:29;7.60;62.50
10057;DHT22;5068;51.286;7.518;2024-02-21T06:25:01;7.70;62.60
10057;DHT22;5068;51.286;7.518;2024-02-21T06:26:34;7.70;62.60
10057;DHT22;5068;51.286;7.518;2024-02-21T06:28:07;7.70;62.60
10057;DHT22;5068;51.286;7.518;2024-02-21T06:29:40;7.70;62.60
10057;DHT22;5068;51.286;7.518;2024-02-21T06:31:12;7.70;62.50
10057;DHT22;5068;51.286;7.518;2024-02-21T06:32:48;7.70;62.60
10057;DHT22;5068;51.286;7.518;2024-02-21T06:34:21;7.70;62.50
10057;DHT22;5068;51.286;7.518;2024-02-21T06:35:56;7.70;62.30
10057;DHT22;5068;51.286;7.518;2024-02-21T06:37:28;7.70;62.30
10057;DHT22;5068;51.286;7.518;2024-02-21T06:39:02;7.70;62.40
10057;DHT22;5068;51.286;7.518;2024-02-21T06:40:36;7.70;62.50
10057;DHT22;5068;51.286;7.518;2024-02-21T06:42:12;7.70;62.30
10057;DHT22;5068;51.286;7.518;2024-02-21T06:43:44;7.70;62.30
10057;DHT22;5068;51.286;7.518;2024-02-21T06:45:18;7.60;62.20
10057;DHT22;5068;51.286;7.518;2024-02-21T06:46:51;7.70;62.30
10057;DHT22;5068;51.286;7.518;2024-02-21T06:48:23;7.60;62.30
10057;DHT22;5068;51.286;7.518;2024-02-21T06:49:58;7.70;62.50
10057;DHT22;5068;51.286;7.518;2024-02-21T06:51:30;7.70;62.50
10057;DHT22;5068;51.286;7.518;2024-02-21T06:53:04;7.70;63.20
10057;DHT22;5068;51.286;7.518;2024-02-21T06:54:36;7.70;62.30
10057;DHT22;5068;51.286;7.518;2024-02-21T06:56:24;7.70;62.30
10057;DHT22;5068;51.286;7.518;2024-02-21T06:58:00;7.70;62.40
10057;DHT22;5068;51.286;7.518;2024-02-21T06:59:33;7.70;62.40
10057;DHT22;5068;51.286;7.518;2024-02-21T07:01:06;7.70;62.30
10057;DHT22;5068;51.286;7.518;2024-02-21T07:02:39;7.70;62.30
10057;DHT22;5068;51.286;7.518;2024-02-21T07:04:12;7.70;62.30
10057;DHT22;5068;51.286;7.518;2024-02-21T07:05:46;7.70;62.40
10057;DHT22;5068;51.286;7.518;2024-02-21T07:07:19;7.70;62.30
10057;DHT22;5068;51.286;7.518;2024-02-21T07:08:53;7.70;62.50
10057;DHT22;5068;51.286;7.518;2024-02-21T07:10:25;7.70;62.60
10057;DHT22;5068;51.286;7.518;2024-02-21T07:11:59;7.70;62.60
10057;DHT22;5068;51.286;7.518;2024-02-21T07:13:32;7.70;62.50
10057;DHT22;5068;51.286;7.518;2024-02-21T07:15:05;7.80;62.70
10057;DHT22;5068;51.286;7.518;2024-02-21T07:16:38;7.70;62.60
10057;DHT22;5068;51.286;7.518;2024-02-21T07:18:12;7.70;62.40
10057;DHT22;5068;51.286;7.518;2024-02-21T07:19:44;7.70;62.30
10057;DHT22;5068;51.286;7.518;2024-02-21T07:21:18;7.80;62.40
10057;DHT22;5068;51.286;7.518;2024-02-21T07:22:51;7.80;62.50
10057;DHT22;5068;51.286;7.518;2024-02-21T07:24:24;7.80;62.50
10057;DHT22;5068;51.286;7.518;2024-02-21T07:25:57;7.70;62.40
10057;DHT22;5068;51.286;7.518;2024-02-21T07:27:29;7.80;62.50
10057;DHT22;5068;51.286;7.518;2024-02-21T07:29:05;7.80;62.50
10057;DHT22;5068;51.286;7.518;2024-02-21T07:30:37;7.80;62.50
10057;DHT22;5068;51.286;7.518;2024-02-21T07:32:10;7.80;62.50
10057;DHT22;5068;51.286;7.518;2024-02-21T07:33:44;7.90;62.60
10057;DHT22;5068;51.286;7.518;2024-02-21T07:35:17;7.80;62.20
10057;DHT22;5068;51.286;7.518;2024-02-21T07:36:51;7.80;62.10
10057;DHT22;5068;51.286;7.518;2024-02-21T07:38:24;7.90;62.00
10057;DHT22;5068;51.286;7.518;2024-02-21T07:39:58;7.80;62.00
10057;DHT22;5068;51.286;7.518;2024-02-21T07:41:30;7.80;62.00
10057;DHT22;5068;51.286;7.518;2024-02-21T07:43:03;7.90;62.20
10057;DHT22;5068;51.286;7.518;2024-02-21T07:44:35;7.90;62.10
10057;DHT22;5068;51.286;7.518;2024-02-21T07:46:09;7.90;62.00
10057;DHT22;5068;51.286;7.518;2024-02-21T07:47:42;7.90;62.00
10057;DHT22;5068;51.286;7.518;2024-02-21T07:49:15;7.90;61.80
10057;DHT22;5068;51.286;7.518;2024-02-21T07:50:49;7.90;61.70
10057;DHT22;5068;51.286;7.518;2024-02-21T07:52:22;7.90;61.60
10057;DHT22;5068;51.286;7.518;2024-02-21T07:53:56;7.90;61.40
10057;DHT22;5068;51.286;7.518;2024-02-21T07:55:28;7.90;61.30
10057;DHT22;5068;51.286;7.518;2024-02-21T07:57:02;7.90;61.40
10057;DHT22;5068;51.286;7.518;2024-02-21T07:58:35;7.90;61.30
10057;DHT22;5068;51.286;7.518;2024-02-21T08:00:08;7.90;61.20
10057;DHT22;5068;51.286;7.518;2024-02-21T08:01:45;8.00;61.30
10057;DHT22;5068;51.286;7.518;2024-02-21T08:03:18;7.90;61.00
10057;DHT22;5068;51.286;7.518;2024-02-21T08:04:52;7.90;61.00
10057;DHT22;5068;51.286;7.518;2024-02-21T08:06:26;8.00;61.00
10057;DHT22;5068;51.286;7.518;2024-02-21T08:08:00;7.90;60.80
10057;DHT22;5068;51.286;7.518;2024-02-21T08:09:32;8.00;60.90
10057;DHT22;5068;51.286;7.518;2024-02-21T08:11:07;8.00;60.80
10057;DHT22;5068;51.286;7.518;2024-02-21T08:12:39;8.00;60.80
10057;DHT22;5068;51.286;7.518;2024-02-21T08:14:13;8.00;60.80
10057;DHT22;5068;51.286;7.518;2024-02-21T08:15:51;8.00;60.90
10057;DHT22;5068;51.286;7.518;2024-02-21T08:17:25;8.00;60.80
10057;DHT22;5068;51.286;7.518;2024-02-21T08:18:57;8.00;60.70
10057;DHT22;5068;51.286;7.518;2024-02-21T08:20:31;7.90;60.70
10057;DHT22;5068;51.286;7.518;2024-02-21T08:22:04;8.00;61.00
10057;DHT22;5068;51.286;7.518;2024-02-21T08:23:40;7.90;60.90
10057;DHT22;5068;51.286;7.518;2024-02-21T08:25:12;8.00;61.20
10057;DHT22;5068;51.286;7.518;2024-02-21T08:26:46;7.90;61.20
10057;DHT22;5068;51.286;7.518;2024-02-21T08:28:18;8.00;61.40
10057;DHT22;5068;51.286;7.518;2024-02-21T08:29:51;7.90;61.40
10057;DHT22;5068;51.286;7.518;2024-02-21T08:31:24;7.90;61.40
10057;DHT22;5068;51.286;7.518;2024-02-21T08:33:03;7.90;62.30
10057;DHT22;5068;51.286;7.518;2024-02-21T08:34:36;7.90;61.70
10057;DHT22;5068;51.286;7.518;2024-02-21T08:36:09;7.90;61.60
10057;DHT22;5068;51.286;7.518;2024-02-21T08:37:50;7.90;61.70
10057;DHT22;5068;51.286;7.518;2024-02-21T08:39:23;7.90;62.50
10057;DHT22;5068;51.286;7.518;2024-02-21T08:40:57;7.90;61.70
10057;DHT22;5068;51.286;7.518;2024-02-21T08:42:29;7.90;61.70
10057;DHT22;5068;51.286;7.518;2024-02-21T08:44:05;7.90;61.80
10057;DHT22;5068;51.286;7.518;2024-02-21T08:45:39;8.00;61.90
10057;DHT22;5068;51.286;7.518;2024-02-21T08:47:12;7.90;61.90
10057;DHT22;5068;51.286;7.518;2024-02-21T08:48:44;7.90;61.90
10057;DHT22;5068;51.286;7.518;2024-02-21T08:50:18;8.00;62.10
10057;DHT22;5068;51.286;7.518;2024-02-21T08:52:01;8.00;62.00
10057;DHT22;5068;51.286;7.518;2024-02-21T08:53:36;8.00;62.00
10057;DHT22;5068;51.286;7.518;2024-02-21T08:55:10;8.00;61.90
10057;DHT22;5068;51.286;7.518;2024-02-21T08:56:43;8.00;61.90
10057;DHT22;5068;51.286;7.518;2024-02-21T08:58:16;8.00;61.80
10057;DHT22;5068;51.286;7.518;2024-02-21T08:59:52;8.00;61.70
10057;DHT22;5068;51.286;7.518;2024-02-21T09:01:25;8.00;61.60
10057;DHT22;5068;51.286;7.518;2024-02-21T09:02:59;8.10;61.80
10057;DHT22;5068;51.286;7.518;2024-02-21T09:04:31;8.10;61.70
10057;DHT22;5068;51.286;7.518;2024-02-21T09:06:06;8.10;61.50
10057;DHT22;5068;51.286;7.518;2024-02-21T09:07:39;8.10;61.50
10057;DHT22;5068;51.286;7.518;2024-02-21T09:09:12;8.10;61.50
10057;DHT22;5068;51.286;7.518;2024-02-21T09:10:45;8.20;61.60
10057;DHT22;5068;51.286;7.518;2024-02-21T09:12:19;8.20;61.50
10057;DHT22;5068;51.286;7.518;2024-02-21T09:13:51;8.20;61.50
10057;DHT22;5068;51.286;7.518;2024-02-21T09:15:24;8.20;61.50
10057;DHT22;5068;51.286;7.518;2024-02-21T09:16:57;8.20;61.40
10057;DHT22;5068;51.286;7.518;2024-02-21T09:18:30;8.20;62.00
10057;DHT22;5068;51.286;7.518;2024-02-21T09:20:03;8.20;61.20
10057;DHT22;5068;51.286;7.518;2024-02-21T09:21:38;8.20;61.20
10057;DHT22;5068;51.286;7.518;2024-02-21T09:23:10;8.30;61.30
10057;DHT22;5068;51.286;7.518;2024-02-21T09:24:43;8.20;61.20
10057;DHT22;5068;51.286;7.518;2024-02-21T09:26:17;8.30;61.20
10057;DHT22;5068;51.286;7.518;2024-02-21T09:27:50;8.30;61.10
10057;DHT22;5068;51.286;7.518;2024-02-21T09:29:24;8.30;61.00
10057;DHT22;5068;51.286;7.518;2024-02-21T09:30:59;8.30;61.00
10057;DHT22;5068;51.286;7.518;2024-02-21T09:32:31;8.30;60.90
10057;DHT22;5068;51.286;7.518;2024-02-21T09:34:05;8.30;60.90
10057;DHT22;5068;51.286;7.518;2024-02-21T09:35:38;8.30;60.80
10057;DHT22;5068;51.286;7.518;2024-02-21T09:37:11;8.30;60.80
10057;DHT22;5068;51.286;7.518;2024-02-21T09:38:44;8.30;60.80
10057;DHT22;5068;51.286;7.518;2024-02-21T09:40:18;8.30;60.80
10057;DHT22;5068;51.286;7.518;2024-02-21T09:41:58;8.30;60.80
10057;DHT22;5068;51.286;7.518;2024-02-21T09:43:37;8.40;60.90
10057;DHT22;5068;51.286;7.518;2024-02-21T09:45:22;8.30;60.70
10057;DHT22;5068;51.286;7.518;2024-02-21T09:47:02;8.30;60.60
10057;DHT22;5068;51.286;7.518;2024-02-21T09:48:52;8.50;60.60
10057;DHT22;5068;51.286;7.518;2024-02-21T09:50:38;8.40;60.30
10057;DHT22;5068;51.286;7.518;2024-02-21T09:52:13;8.40;60.30
10057;DHT22;5068;51.286;7.518;2024-02-21T09:53:49;8.40;60.40
10057;DHT22;5068;51.286;7.518;2024-02-21T09:55:37;8.30;60.20
10057;DHT22;5068;51.286;7.518;2024-02-21T09:57:14;8.40;60.20
10057;DHT22;5068;51.286;7.518;2024-02-21T09:58:48;8.40;60.10
10057;DHT22;5068;51.286;7.518;2024-02-21T10:00:22;8.30;59.90
10057;DHT22;5068;51.286;7.518;2024-02-21T10:01:54;8.30;59.90
10057;DHT22;5068;51.286;7.518;2024-02-21T10:03:28;8.30;59.90
10057;DHT22;5068;51.286;7.518;2024-02-21T10:05:00;8.30;60.60
10057;DHT22;5068;51.286;7.518;2024-02-21T10:06:36;8.30;59.80
10057;DHT22;5068;51.286;7.518;2024-02-21T10:08:14;8.30;59.80
10057;DHT22;5068;51.286;7.518;2024-02-21T10:09:48;8.30;59.70
10057;DHT22;5068;51.286;7.518;2024-02-21T10:11:24;8.30;59.70
10057;DHT22;5068;51.286;7.518;2024-02-21T10:12:58;8.40;59.70